sensor_id;sensor_type;location;lat;lon;timestamp;pressure;altitude;pressure_sealevel;temperature;humidity
72157;BME280;60035;52.122;5.406;2023-05-21T16:26:02;101712.88;;;28.65;41.83
72157;BME280;60035;52.122;5.406;2023-05-21T16:28:29;101715.56;;;28.36;42.07
72157;BME280;60035;52.122;5.406;2023-05-21T16:30:55;101711.91;;;28.47;42.56
72157;BME280;60035;52.122;5.406;2023-05-21T16:33:22;101718.31;;;28.24;42.32
72157;BME280;60035;52.122;5.406;2023-05-21T16:35:48;101718.06;;;27.98;43.36
72157;BME280;60035;52.122;5.406;2023-05-21T16:38:16;101723.91;;;28.12;43.03
72157;BME280;60035;52.122;5.406;2023-05-21T16:40:42;101713.63;;;28.08;42.81
72157;BME280;60035;52.122;5.406;2023-05-21T16:43:10;101718.03;;;27.88;43.50
72157;BME280;60035;52.122;5.406;2023-05-21T16:45:41;101712.78;;;28.18;43.46
72157;BME280;60035;52.122;5.406;2023-05-21T16:48:14;101717.44;;;28.53;42.54
72157;BME280;60035;52.122;5.406;2023-05-21T16:50:41;101710.25;;;28.55;42.66
72157;BME280;60035;52.122;5.406;2023-05-21T16:53:08;101708.13;;;28.59;42.38
72157;BME280;60035;52.122;5.406;2023-05-21T16:55:36;101709.63;;;28.81;42.40
72157;BME280;60035;52.122;5.406;2023-05-21T16:58:04;101706.97;;;28.91;41.52
72157;BME280;60035;52.122;5.406;2023-05-21T17:00:32;101706.78;;;29.02;41.29
72157;BME280;60035;52.122;5.406;2023-05-21T17:02:59;101712.41;;;29.17;41.53
72157;BME280;60035;52.122;5.406;2023-05-21T17:05:26;101719.22;;;28.82;42.05
72157;BME280;60035;52.122;5.406;2023-05-21T17:07:52;101720.38;;;28.40;41.90
72157;BME280;60035;52.122;5.406;2023-05-21T17:10:21;101720.69;;;28.18;43.02
72157;BME280;60035;52.122;5.406;2023-05-21T17:12:48;101716.97;;;28.11;43.44
72157;BME280;60035;52.122;5.406;2023-05-21T17:15:15;101721.69;;;28.07;42.97
72157;BME280;60035;52.122;5.406;2023-05-21T17:17:41;101722.41;;;27.49;44.39
72157;BME280;60035;52.122;5.406;2023-05-21T17:20:08;101721.81;;;27.35;44.78
72157;BME280;60035;52.122;5.406;2023-05-21T17:22:35;101727.34;;;27.32;45.37
72157;BME280;60035;52.122;5.406;2023-05-21T17:25:02;101728.09;;;27.13;45.05
72157;BME280;60035;52.122;5.406;2023-05-21T17:27:28;101731.38;;;27.05;45.42
72157;BME280;60035;52.122;5.406;2023-05-21T17:29:55;101726.22;;;26.94;45.38
72157;BME280;60035;52.122;5.406;2023-05-21T17:32:22;101725.59;;;26.59;46.20
72157;BME280;60035;52.122;5.406;2023-05-21T17:34:49;101725.28;;;26.53;46.74
72157;BME280;60035;52.122;5.406;2023-05-21T17:37:16;101722.81;;;26.19;47.37
72157;BME280;60035;52.122;5.406;2023-05-21T17:39:42;101715.44;;;26.13;47.56
72157;BME280;60035;52.122;5.406;2023-05-21T17:42:08;101722.50;;;25.68;48.53
72157;BME280;60035;52.122;5.406;2023-05-21T17:44:35;101719.41;;;24.95;50.05
72157;BME280;60035;52.122;5.406;2023-05-21T17:47:02;101719.50;;;24.35;51.77
72157;BME280;60035;52.122;5.406;2023-05-21T17:49:28;101726.13;;;24.04;52.64
72157;BME280;60035;52.122;5.406;2023-05-21T17:51:55;101716.53;;;23.67;53.74
72157;BME280;60035;52.122;5.406;2023-05-21T17:54:21;101723.91;;;23.49;54.59
72157;BME280;60035;52.122;5.406;2023-05-21T17:56:48;101727.66;;;23.45;55.26
72157;BME280;60035;52.122;5.406;2023-05-21T17:59:15;101736.16;;;23.23;55.66
72157;BME280;60035;52.122;5.406;2023-05-21T18:01:41;101729.16;;;22.98;56.15
72157;BME280;60035;52.122;5.406;2023-05-21T18:04:08;101739.50;;;22.73;57.31
72157;BME280;60035;52.122;5.406;2023-05-21T18:06:37;101744.25;;;22.54;57.80
72157;BME280;60035;52.122;5.406;2023-05-21T18:09:04;101736.22;;;22.44;58.29
72157;BME280;60035;52.122;5.406;2023-05-21T18:11:33;101737.75;;;22.19;58.84
72157;BME280;60035;52.122;5.406;2023-05-21T18:13:59;101741.00;;;21.95;59.53
72157;BME280;60035;52.122;5.406;2023-05-21T18:16:26;101739.44;;;21.93;60.11
72157;BME280;60035;52.122;5.406;2023-05-21T18:18:55;101735.13;;;21.92;60.35
72157;BME280;60035;52.122;5.406;2023-05-21T18:21:22;101738.53;;;21.79;60.86
72157;BME280;60035;52.122;5.406;2023-05-21T18:23:48;101742.28;;;21.75;61.11
72157;BME280;60035;52.122;5.406;2023-05-21T18:26:15;101741.16;;;21.79;61.47
72157;BME280;60035;52.122;5.406;2023-05-21T18:28:41;101733.59;;;21.75;61.63
72157;BME280;60035;52.122;5.406;2023-05-21T18:31:08;101732.22;;;21.69;61.88
72157;BME280;60035;52.122;5.406;2023-05-21T18:33:34;101736.25;;;21.60;62.36
72157;BME280;60035;52.122;5.406;2023-05-21T18:36:01;101733.91;;;21.41;62.86
72157;BME280;60035;52.122;5.406;2023-05-21T18:38:28;101737.25;;;21.43;62.85
72157;BME280;60035;52.122;5.406;2023-05-21T18:40:55;101742.28;;;21.46;62.78
72157;BME280;60035;52.122;5.406;2023-05-21T18:43:21;101735.78;;;21.39;63.21
72157;BME280;60035;52.122;5.406;2023-05-21T18:45:48;101737.81;;;21.34;63.44
72157;BME280;60035;52.122;5.406;2023-05-21T18:48:14;101730.06;;;21.33;63.74
72157;BME280;60035;52.122;5.406;2023-05-21T18:50:41;101732.06;;;21.29;63.80
72157;BME280;60035;52.122;5.406;2023-05-21T18:53:09;101729.63;;;21.11;64.01
72157;BME280;60035;52.122;5.406;2023-05-21T18:55:35;101730.69;;;20.93;65.13
72157;BME280;60035;52.122;5.406;2023-05-21T18:58:02;101736.84;;;20.77;65.66
72157;BME280;60035;52.122;5.406;2023-05-21T19:00:28;101730.13;;;20.73;65.79
72157;BME280;60035;52.122;5.406;2023-05-21T19:02:55;101736.34;;;20.71;66.04
72157;BME280;60035;52.122;5.406;2023-05-21T19:05:21;101733.25;;;20.64;66.26
72157;BME280;60035;52.122;5.406;2023-05-21T19:07:51;101739.47;;;20.61;66.27
72157;BME280;60035;52.122;5.406;2023-05-21T19:10:17;101741.00;;;20.50;66.91
72157;BME280;60035;52.122;5.406;2023-05-21T19:12:45;101740.59;;;20.41;67.46
72157;BME280;60035;52.122;5.406;2023-05-21T19:15:11;101736.56;;;20.36;67.07
72157;BME280;60035;52.122;5.406;2023-05-21T19:17:38;101741.56;;;20.24;67.88
72157;BME280;60035;52.122;5.406;2023-05-21T19:20:06;101738.38;;;20.03;68.69
72157;BME280;60035;52.122;5.406;2023-05-21T19:22:33;101735.44;;;19.93;69.42
72157;BME280;60035;52.122;5.406;2023-05-21T19:25:02;101747.94;;;19.87;69.86
72157;BME280;60035;52.122;5.406;2023-05-21T19:27:29;101746.06;;;19.73;70.06
72157;BME280;60035;52.122;5.406;2023-05-21T19:29:56;101746.38;;;19.67;70.61
72157;BME280;60035;52.122;5.406;2023-05-21T19:32:22;101742.38;;;19.61;71.24
72157;BME280;60035;52.122;5.406;2023-05-21T19:34:49;101738.66;;;19.49;71.62
72157;BME280;60035;52.122;5.406;2023-05-21T19:37:17;101743.44;;;19.41;72.22
72157;BME280;60035;52.122;5.406;2023-05-21T19:39:43;101751.00;;;19.28;72.89
72157;BME280;60035;52.122;5.406;2023-05-21T19:42:15;101752.84;;;19.26;73.21
72157;BME280;60035;52.122;5.406;2023-05-21T19:44:42;101756.59;;;19.20;73.20
72157;BME280;60035;52.122;5.406;2023-05-21T19:47:09;101750.88;;;19.13;73.49
72157;BME280;60035;52.122;5.406;2023-05-21T19:49:35;101760.13;;;19.02;74.09
72157;BME280;60035;52.122;5.406;2023-05-21T19:52:02;101763.94;;;18.94;74.54
72157;BME280;60035;52.122;5.406;2023-05-21T19:54:29;101769.50;;;18.87;74.66
72157;BME280;60035;52.122;5.406;2023-05-21T19:56:56;101763.69;;;18.81;75.09
72157;BME280;60035;52.122;5.406;2023-05-21T19:59:22;101770.88;;;18.76;75.19
72157;BME280;60035;52.122;5.406;2023-05-21T20:01:49;101766.03;;;18.69;75.66
72157;BME280;60035;52.122;5.406;2023-05-21T20:04:16;101772.50;;;18.60;76.47
72157;BME280;60035;52.122;5.406;2023-05-21T20:06:43;101777.31;;;18.50;77.00
72157;BME280;60035;52.122;5.406;2023-05-21T20:09:09;101772.84;;;18.35;77.88
72157;BME280;60035;52.122;5.406;2023-05-21T20:11:38;101766.41;;;18.24;78.40
72157;BME280;60035;52.122;5.406;2023-05-21T20:14:05;101772.75;;;18.19;78.62
72157;BME280;60035;52.122;5.406;2023-05-21T20:16:31;101770.28;;;18.15;79.18
72157;BME280;60035;52.122;5.406;2023-05-21T20:18:58;101775.56;;;18.14;79.53
72157;BME280;60035;52.122;5.406;2023-05-21T20:21:28;101780.19;;;18.07;79.89
72157;BME280;60035;52.122;5.406;2023-05-21T20:23:55;101770.38;;;17.95;80.77
72157;BME280;60035;52.122;5.406;2023-05-21T20:26:21;101774.06;;;17.89;81.37
72157;BME280;60035;52.122;5.406;2023-05-21T20:28:48;101778.44;;;17.87;81.64
72157;BME280;60035;52.122;5.406;2023-05-21T20:31:14;101774.41;;;17.81;82.03
72157;BME280;60035;52.122;5.406;2023-05-21T20:33:41;101774.63;;;17.77;82.39
72157;BME280;60035;52.122;5.406;2023-05-21T20:36:08;101771.41;;;17.72;83.02
72157;BME280;60035;52.122;5.406;2023-05-21T20:38:35;101771.66;;;17.65;83.21
72157;BME280;60035;52.122;5.406;2023-05-21T20:41:03;101774.41;;;17.62;84.07
72157;BME280;60035;52.122;5.406;2023-05-21T20:43:30;101765.34;;;17.52;84.31
72157;BME280;60035;52.122;5.406;2023-05-21T20:45:58;101771.41;;;17.51;85.04
72157;BME280;60035;52.122;5.406;2023-05-21T20:48:25;101763.09;;;17.44;85.84
72157;BME280;60035;52.122;5.406;2023-05-21T20:50:57;101767.50;;;17.42;86.01
72157;BME280;60035;52.122;5.406;2023-05-21T20:53:25;101758.94;;;17.40;86.29
72157;BME280;60035;52.122;5.406;2023-05-21T20:55:52;101760.91;;;17.35;86.65
72157;BME280;60035;52.122;5.406;2023-05-21T20:58:21;101754.09;;;17.32;87.04
72157;BME280;60035;52.122;5.406;2023-05-21T21:00:49;101754.16;;;17.31;87.88
72157;BME280;60035;52.122;5.406;2023-05-21T21:03:16;101750.75;;;17.30;88.25
72157;BME280;60035;52.122;5.406;2023-05-21T21:05:43;101755.94;;;17.30;88.41
72157;BME280;60035;52.122;5.406;2023-05-21T21:08:10;101756.75;;;17.31;88.26
72157;BME280;60035;52.122;5.406;2023-05-21T21:10:37;101754.31;;;17.28;89.10
72157;BME280;60035;52.122;5.406;2023-05-21T21:13:06;101754.50;;;17.23;88.99
72157;BME280;60035;52.122;5.406;2023-05-21T21:15:33;101762.25;;;17.23;89.48
72157;BME280;60035;52.122;5.406;2023-05-21T21:18:00;101761.38;;;17.24;89.89
72157;BME280;60035;52.122;5.406;2023-05-21T21:20:27;101756.94;;;17.26;89.20
72157;BME280;60035;52.122;5.406;2023-05-21T21:22:53;101759.59;;;17.25;89.51
72157;BME280;60035;52.122;5.406;2023-05-21T21:25:20;101750.38;;;17.19;89.78
72157;BME280;60035;52.122;5.406;2023-05-21T21:27:47;101747.06;;;17.15;90.27
72157;BME280;60035;52.122;5.406;2023-05-21T21:30:13;101741.13;;;17.13;90.87
72157;BME280;60035;52.122;5.406;2023-05-21T21:32:40;101743.63;;;17.15;91.20
72157;BME280;60035;52.122;5.406;2023-05-21T21:35:07;101744.78;;;17.08;91.48
72157;BME280;60035;52.122;5.406;2023-05-21T21:37:35;101733.63;;;17.07;91.95
72157;BME280;60035;52.122;5.406;2023-05-21T21:40:02;101740.47;;;17.08;92.23
72157;BME280;60035;52.122;5.406;2023-05-21T21:42:28;101735.38;;;17.07;92.61
72157;BME280;60035;52.122;5.406;2023-05-21T21:44:55;101738.78;;;17.07;93.09
72157;BME280;60035;52.122;5.406;2023-05-21T21:47:21;101738.72;;;17.09;92.89
72157;BME280;60035;52.122;5.406;2023-05-21T21:49:48;101738.78;;;17.07;92.95
72157;BME280;60035;52.122;5.406;2023-05-21T21:52:16;101742.41;;;17.03;93.72
72157;BME280;60035;52.122;5.406;2023-05-21T21:54:42;101745.91;;;17.02;93.93
72157;BME280;60035;52.122;5.406;2023-05-21T21:57:09;101739.19;;;16.98;94.35
72157;BME280;60035;52.122;5.406;2023-05-21T21:59:36;101741.13;;;16.93;94.84
72157;BME280;60035;52.122;5.406;2023-05-21T22:02:03;101743.00;;;16.88;95.62
72157;BME280;60035;52.122;5.406;2023-05-21T22:04:29;101747.53;;;16.82;96.59
72157;BME280;60035;52.122;5.406;2023-05-21T22:06:56;101750.44;;;16.75;97.19
72157;BME280;60035;52.122;5.406;2023-05-21T22:09:23;101750.56;;;16.72;98.06
72157;BME280;60035;52.122;5.406;2023-05-21T22:11:49;101750.78;;;16.67;98.94
72157;BME280;60035;52.122;5.406;2023-05-21T22:14:17;101744.75;;;16.66;99.83
72157;BME280;60035;52.122;5.406;2023-05-21T22:16:43;101738.09;;;16.61;100.00
72157;BME280;60035;52.122;5.406;2023-05-21T22:19:10;101741.63;;;16.58;100.00
72157;BME280;60035;52.122;5.406;2023-05-21T22:21:38;101737.50;;;16.54;100.00
72157;BME280;60035;52.122;5.406;2023-05-21T22:24:05;101729.88;;;16.51;100.00
72157;BME280;60035;52.122;5.406;2023-05-21T22:26:32;101729.97;;;16.48;100.00
72157;BME280;60035;52.122;5.406;2023-05-21T22:28:58;101730.88;;;16.47;100.00
72157;BME280;60035;52.122;5.406;2023-05-21T22:31:25;101723.97;;;16.47;100.00
72157;BME280;60035;52.122;5.406;2023-05-21T22:33:52;101724.94;;;16.45;100.00
72157;BME280;60035;52.122;5.406;2023-05-21T22:36:18;101730.09;;;16.45;100.00
72157;BME280;60035;52.122;5.406;2023-05-21T22:38:45;101722.47;;;16.42;100.00
72157;BME280;60035;52.122;5.406;2023-05-21T22:41:11;101722.59;;;16.39;100.00
72157;BME280;60035;52.122;5.406;2023-05-21T22:43:38;101722.78;;;16.34;100.00
72157;BME280;60035;52.122;5.406;2023-05-21T22:46:04;101725.59;;;16.28;100.00
72157;BME280;60035;52.122;5.406;2023-05-21T22:48:31;101719.78;;;16.23;100.00
72157;BME280;60035;52.122;5.406;2023-05-21T22:50:59;101724.19;;;16.21;100.00
72157;BME280;60035;52.122;5.406;2023-05-21T22:53:27;101724.19;;;16.21;100.00
72157;BME280;60035;52.122;5.406;2023-05-21T22:55:53;101723.25;;;16.22;100.00
72157;BME280;60035;52.122;5.406;2023-05-21T22:58:20;101727.53;;;16.23;100.00
72157;BME280;60035;52.122;5.406;2023-05-21T23:00:46;101724.09;;;16.22;100.00
72157;BME280;60035;52.122;5.406;2023-05-21T23:03:13;101725.84;;;16.22;100.00
72157;BME280;60035;52.122;5.406;2023-05-21T23:05:40;101729.28;;;16.22;100.00
72157;BME280;60035;52.122;5.406;2023-05-21T23:08:06;101739.63;;;16.22;100.00
72157;BME280;60035;52.122;5.406;2023-05-21T23:10:33;101749.81;;;16.25;100.00
72157;BME280;60035;52.122;5.406;2023-05-21T23:13:00;101737.69;;;16.27;100.00
72157;BME280;60035;52.122;5.406;2023-05-21T23:15:27;101741.84;;;16.31;100.00
72157;BME280;60035;52.122;5.406;2023-05-21T23:17:55;101770.06;;;16.36;100.00
72157;BME280;60035;52.122;5.406;2023-05-21T23:20:22;101780.25;;;16.41;100.00
72157;BME280;60035;52.122;5.406;2023-05-21T23:22:50;101785.28;;;16.44;100.00
72157;BME280;60035;52.122;5.406;2023-05-21T23:25:16;101793.78;;;16.47;100.00
72157;BME280;60035;52.122;5.406;2023-05-21T23:27:43;101780.66;;;16.52;100.00
72157;BME280;60035;52.122;5.406;2023-05-21T23:30:10;101771.28;;;16.49;100.00
72157;BME280;60035;52.122;5.406;2023-05-21T23:32:37;101783.22;;;16.52;100.00
72157;BME280;60035;52.122;5.406;2023-05-21T23:35:04;101782.94;;;16.60;100.00
72157;BME280;60035;52.122;5.406;2023-05-21T23:37:31;101762.38;;;16.57;100.00
72157;BME280;60035;52.122;5.406;2023-05-21T23:39:57;101762.47;;;16.54;100.00
72157;BME280;60035;52.122;5.406;2023-05-21T23:42:24;101759.28;;;16.48;100.00
72157;BME280;60035;52.122;5.406;2023-05-21T23:44:50;101762.16;;;16.41;100.00
72157;BME280;60035;52.122;5.406;2023-05-21T23:47:17;101747.66;;;16.37;100.00
72157;BME280;60035;52.122;5.406;2023-05-21T23:49:43;101747.06;;;16.30;100.00
72157;BME280;60035;52.122;5.406;2023-05-21T23:52:10;101733.41;;;16.26;100.00
72157;BME280;60035;52.122;5.406;2023-05-21T23:54:38;101738.75;;;16.22;100.00
72157;BME280;60035;52.122;5.406;2023-05-21T23:57:05;101734.66;;;16.16;100.00
72157;BME280;60035;52.122;5.406;2023-05-21T23:59:31;101733.84;;;16.15;100.00
